Alfred, TX

6:34 PM CST on February 27, 2015 (GMT -0600)
Ben Bolt Service Center | Change Station
CLOSE
Current Station
Personal Weather Station
Location: Alice, TX
Elevation: 220 ft
Nearby Weather Stations

Elev 220 ft 27.68 °N, 98.08 °W | Updated 35 seconds ago

Overcast
Overcast
46.6 °F
Feels Like 41 °F
N
11.0
Wind Variable Wind from North
Gusts 13.0 mph

Today
High -- | Low -- °F
--% Chance of Precip.
Yesterday
High -- | Low -- °F
Precip. -- in
6:58 AM 6:31 PM
Waxing Gibbous, 73% visible
Pressure 30.21 in
Visibility 4.0 miles
Clouds Overcast 1600 ft
Windchill 41 °F
Dew Point 45 °F
Humidity 93%
Rainfall 0.00 in
Snow Depth Not available.
UV 0 out of 12
Pollen 8.80 out of 12
Air Quality Not available.
Flu Activity Not available.
SPECI KALI 280026Z AUTO 02008KT 4SM -RA BR OVC016 09/07 A3021

More Conditions Fewer Conditions

Pressure 30.21 in
Visibility 4.0 miles
Clouds Overcast 1600 ft
Windchill 41 °F
Dew Point 45 °F
Humidity 93%
Rainfall 0.00 in
Snow Depth Not available.
UV 0 out of 12
Pollen 8.80 out of 12
Air Quality Not available.
Flu Activity Not available.
SPECI KALI 280026Z AUTO 02008KT 4SM -RA BR OVC016 09/07 A3021

More Conditions Fewer Conditions

Nowcast | as of 5:34 PM CST on February 27, 2015

Areas of light rain and drizzle will continue over south Texas and the near shore waters through 8 PM. Rainfall rates will not exceed a few hundredths of an inch per hour. While temperatures over parts of the Rio Grande plains are currently in the upper 30s...no freezing conditions are expected.

×

10-Day Weather Forecast

Almanac

Astronomy

Feb. 27, 2015 Rise Set
Actual Time
Civil Twilight
Nautical Twilight
Astronomical Twilight
Moon
Length of Visible Light
Length of Day
Tomorrow will be .
, % of the Moon is Illuminated

Today's Extremes

State Highs State Lows

Community

WunderPhotos

Upload Photos

1,800,904 photos uploaded!

WunderBlogs® & News

Nearby

Air Quality

  Air Quality AQ Index Pollutant
Not available.

Snow Depth

Station Depth Elevation

Earthquake Activity

City Distance Mag. Time & Date
Minimum magnitude displayed is 2.5.

Coastal Water Temperatures

Place Temperature

Nearby Weather Stations